createdAt,value
2023-04-27T00:02:26.035Z,18.77
2023-04-27T00:04:54.699Z,24.73
2023-04-27T00:07:26.180Z,22.70
2023-04-27T00:09:54.306Z,19.90
2023-04-27T00:12:22.928Z,24.75
2023-04-27T00:14:51.170Z,17.80
2023-04-27T00:17:19.591Z,22.63
2023-04-27T00:19:49.076Z,27.23
2023-04-27T00:22:17.661Z,24.70
2023-04-27T00:24:47.130Z,23.35
2023-04-27T00:27:15.495Z,27.73
2023-04-27T00:29:43.809Z,24.58
2023-04-27T00:32:12.647Z,24.08
2023-04-27T00:34:40.887Z,23.75
2023-04-27T00:37:10.007Z,23.08
2023-04-27T00:39:38.124Z,26.58
2023-04-27T00:42:11.439Z,25.88
2023-04-27T00:44:40.018Z,35.08
2023-04-27T00:47:08.699Z,30.23
2023-04-27T00:49:36.851Z,21.83
2023-04-27T00:52:05.516Z,30.17
2023-04-27T00:54:33.618Z,23.35
2023-04-27T00:57:02.268Z,21.75
2023-04-27T00:59:31.735Z,29.58
2023-04-27T01:02:22.757Z,23.67
2023-04-27T01:04:52.038Z,23.70
2023-04-27T01:07:20.409Z,24.80
2023-04-27T01:09:49.016Z,25.60
2023-04-27T01:12:17.600Z,23.70
2023-04-27T01:14:47.074Z,24.77
2023-04-27T01:17:15.734Z,20.80
2023-04-27T01:19:44.915Z,27.63
2023-04-27T01:22:15.126Z,24.05
2023-04-27T01:24:44.842Z,24.58
2023-04-27T01:27:13.220Z,17.42
2023-04-27T01:29:49.639Z,25.05
2023-04-27T01:32:18.120Z,23.40
2023-04-27T01:34:46.269Z,26.42
2023-04-27T01:37:15.709Z,21.17
2023-04-27T01:39:43.831Z,19.83
2023-04-27T01:42:12.155Z,26.17
2023-04-27T01:44:40.370Z,18.23
2023-04-27T01:47:10.232Z,21.95
2023-04-27T01:49:38.343Z,21.88
2023-04-27T01:52:06.903Z,20.55
2023-04-27T01:54:35.021Z,25.70
2023-04-27T01:57:03.594Z,26.60
2023-04-27T01:59:31.778Z,21.92
2023-04-27T02:02:00.381Z,20.30
2023-04-27T02:04:30.038Z,22.25
2023-04-27T02:06:58.669Z,24.40
2023-04-27T02:09:26.834Z,18.63
2023-04-27T02:11:55.229Z,24.40
2023-04-27T02:14:23.362Z,21.20
2023-04-27T02:16:51.851Z,21.30
2023-04-27T02:19:19.922Z,18.45
2023-04-27T02:21:49.746Z,21.27
2023-04-27T02:24:17.830Z,24.45
2023-04-27T02:26:46.229Z,23.45
2023-04-27T02:29:14.835Z,18.05
2023-04-27T02:31:43.692Z,25.27
2023-04-27T02:34:11.781Z,25.10
2023-04-27T02:36:40.599Z,23.02
2023-04-27T02:39:10.045Z,21.58
2023-04-27T02:41:38.420Z,20.40
2023-04-27T02:44:06.953Z,21.73
2023-04-27T02:46:35.391Z,19.80
2023-04-27T02:49:03.616Z,26.48
2023-04-27T02:51:32.190Z,24.10
2023-04-27T02:54:00.508Z,21.42
2023-04-27T02:56:30.559Z,27.67
2023-04-27T02:58:58.653Z,26.08
2023-04-27T03:01:27.171Z,22.80
2023-04-27T03:03:55.472Z,21.23
2023-04-27T03:06:24.009Z,21.77
2023-04-27T03:08:52.498Z,25.15
2023-04-27T03:11:20.937Z,23.58
2023-04-27T03:13:50.584Z,35.95
2023-04-27T03:16:18.962Z,23.50
2023-04-27T03:18:47.071Z,22.73
2023-04-27T03:21:16.834Z,23.40
2023-04-27T03:23:44.951Z,29.45
2023-04-27T03:26:15.334Z,22.02
2023-04-27T03:28:43.838Z,26.08
2023-04-27T03:31:15.181Z,21.73
2023-04-27T03:33:43.441Z,31.73
2023-04-27T03:36:11.803Z,24.58
2023-04-27T03:38:39.952Z,25.27
2023-04-27T03:41:08.323Z,26.80
2023-04-27T03:43:37.017Z,31.88
2023-04-27T03:46:05.469Z,27.10
2023-04-27T03:48:34.959Z,35.80
2023-04-27T03:51:03.454Z,30.30
2023-04-27T03:53:31.684Z,28.35
2023-04-27T03:56:00.739Z,31.67
2023-04-27T03:58:28.936Z,31.25
2023-04-27T04:00:58.702Z,32.78
2023-04-27T04:03:27.425Z,35.63
2023-04-27T04:05:57.251Z,27.80
2023-04-27T04:08:25.966Z,28.58
2023-04-27T04:10:54.346Z,22.83
2023-04-27T04:13:22.501Z,27.33
2023-04-27T04:15:50.887Z,24.77
2023-04-27T04:18:19.138Z,31.48
2023-04-27T04:20:47.466Z,31.02
2023-04-27T04:23:17.100Z,32.63
2023-04-27T04:25:48.030Z,30.00
2023-04-27T04:28:16.341Z,26.83
2023-04-27T04:30:45.548Z,31.08
2023-04-27T04:33:13.664Z,29.80
2023-04-27T04:35:42.892Z,28.67
2023-04-27T04:38:11.192Z,26.63
2023-04-27T04:40:43.780Z,24.02
2023-04-27T04:43:13.721Z,28.48
2023-04-27T04:45:42.606Z,27.20
2023-04-27T04:48:11.448Z,26.17
2023-04-27T04:50:42.107Z,34.35
2023-04-27T04:53:10.434Z,26.58
2023-04-27T04:55:40.995Z,28.27
2023-04-27T04:58:09.132Z,24.52
2023-04-27T05:00:38.249Z,26.27
2023-04-27T05:03:07.687Z,29.73
2023-04-27T05:05:36.335Z,27.27
2023-04-27T05:08:04.740Z,28.02
2023-04-27T05:10:33.244Z,28.60
2023-04-27T05:13:03.148Z,33.58
2023-04-27T05:15:32.736Z,29.77
2023-04-27T05:18:00.918Z,26.92
2023-04-27T05:20:29.355Z,30.55
2023-04-27T05:22:57.620Z,22.75
2023-04-27T05:25:25.994Z,25.30
2023-04-27T05:27:54.253Z,30.77
2023-04-27T05:30:24.222Z,28.05
2023-04-27T05:32:52.431Z,24.10
2023-04-27T05:35:21.136Z,28.88
2023-04-27T05:37:49.267Z,27.80
2023-04-27T05:40:17.803Z,30.00
2023-04-27T05:42:47.763Z,29.42
2023-04-27T05:45:16.397Z,27.33
2023-04-27T05:47:45.999Z,31.25
2023-04-27T05:50:14.674Z,32.00
2023-04-27T05:52:42.878Z,26.00
2023-04-27T05:55:11.490Z,30.13
2023-04-27T05:57:41.318Z,26.13
2023-04-27T06:00:11.113Z,27.23
2023-04-27T06:02:39.492Z,24.25
2023-04-27T06:05:10.658Z,21.73
2023-04-27T06:07:39.139Z,28.73
2023-04-27T06:10:09.007Z,23.13
2023-04-27T06:12:37.330Z,19.80
2023-04-27T06:15:08.546Z,27.10
2023-04-27T06:17:36.932Z,23.77
2023-04-27T06:20:07.676Z,21.60
2023-04-27T06:22:38.261Z,30.80
2023-04-27T06:25:07.696Z,26.75
2023-04-27T06:27:36.383Z,24.30
2023-04-27T06:30:05.497Z,27.88
2023-04-27T06:32:33.768Z,27.25
2023-04-27T06:35:02.276Z,25.40
2023-04-27T06:37:30.629Z,28.88
2023-04-27T06:40:00.464Z,19.85
2023-04-27T06:42:28.572Z,23.63
2023-04-27T06:44:57.234Z,21.27
2023-04-27T06:47:25.624Z,18.77
2023-04-27T06:49:54.123Z,23.42
2023-04-27T06:52:22.223Z,16.13
2023-04-27T06:54:50.610Z,21.42
2023-04-27T06:57:20.133Z,21.73
2023-04-27T06:59:48.675Z,19.65
2023-04-27T07:02:16.910Z,16.50
2023-04-27T07:04:45.980Z,18.30
2023-04-27T07:07:14.314Z,17.35
2023-04-27T07:09:42.826Z,20.50
2023-04-27T07:12:11.505Z,20.15
2023-04-27T07:14:41.270Z,25.15
2023-04-27T07:17:09.781Z,17.58
2023-04-27T07:19:38.672Z,18.67
2023-04-27T07:22:06.826Z,16.83
2023-04-27T07:24:35.332Z,16.42
2023-04-27T07:27:04.195Z,10.13
2023-04-27T07:29:32.966Z,14.25
2023-04-27T07:32:03.089Z,20.42
2023-04-27T07:34:41.221Z,13.85
2023-04-27T07:37:13.977Z,13.82
2023-04-27T07:39:42.529Z,12.30
2023-04-27T07:42:10.616Z,10.82
2023-04-27T07:44:38.988Z,16.50
2023-04-27T07:47:08.897Z,12.07
2023-04-27T07:49:38.288Z,8.80
2023-04-27T07:52:07.146Z,7.78
2023-04-27T07:54:36.307Z,9.90
2023-04-27T07:57:09.415Z,7.38
2023-04-27T07:59:38.217Z,6.97
2023-04-27T08:02:18.999Z,7.10
2023-04-27T08:04:49.504Z,13.27
2023-04-27T08:07:18.486Z,13.30
2023-04-27T08:09:47.827Z,9.13
2023-04-27T08:12:15.964Z,9.90
2023-04-27T08:14:44.325Z,9.90
2023-04-27T08:17:13.968Z,10.88
2023-04-27T08:19:42.548Z,17.00
2023-04-27T08:22:10.846Z,10.05
2023-04-27T08:24:39.202Z,9.30
2023-04-27T08:27:07.785Z,7.38
2023-04-27T08:29:36.282Z,8.82
2023-04-27T08:32:06.658Z,13.05
2023-04-27T08:34:36.514Z,7.07
2023-04-27T08:37:04.976Z,13.82
2023-04-27T08:39:33.358Z,9.63
2023-04-27T08:42:01.633Z,19.17
2023-04-27T08:44:30.719Z,11.98
2023-04-27T08:46:58.817Z,8.90
2023-04-27T08:49:27.362Z,11.10
2023-04-27T08:51:56.896Z,9.48
2023-04-27T08:54:25.588Z,9.20
2023-04-27T08:56:53.844Z,13.80
2023-04-27T08:59:22.342Z,12.02
2023-04-27T09:01:51.336Z,9.32
2023-04-27T09:04:20.281Z,11.10
2023-04-27T09:06:49.818Z,11.55
2023-04-27T09:09:26.078Z,10.15
2023-04-27T09:11:54.203Z,7.78
2023-04-27T09:14:24.049Z,6.80
2023-04-27T09:16:57.842Z,8.57
2023-04-27T09:19:27.495Z,10.43
2023-04-27T09:22:05.431Z,7.93
2023-04-27T09:24:35.777Z,8.93
2023-04-27T09:27:05.036Z,6.55
2023-04-27T09:29:34.601Z,8.43
2023-04-27T09:32:03.648Z,14.55
2023-04-27T09:34:41.944Z,9.65
2023-04-27T09:37:11.563Z,7.95
2023-04-27T09:39:42.186Z,11.05
2023-04-27T09:42:10.661Z,13.20
2023-04-27T09:44:39.042Z,9.90
2023-04-27T09:47:07.777Z,7.38
2023-04-27T09:49:36.321Z,9.10
2023-04-27T09:52:04.607Z,12.93
2023-04-27T09:54:34.815Z,10.18
2023-04-27T09:57:12.498Z,8.85
2023-04-27T10:00:01.985Z,12.00
2023-04-27T10:02:35.008Z,9.95
2023-04-27T10:05:37.759Z,8.35
2023-04-27T10:08:06.791Z,12.68
2023-04-27T10:10:43.973Z,9.43
2023-04-27T10:13:22.434Z,8.23
2023-04-27T10:15:51.222Z,7.07
2023-04-27T10:18:30.591Z,7.90
2023-04-27T10:21:10.540Z,7.15
2023-04-27T10:23:48.301Z,7.68
2023-04-27T10:26:23.925Z,10.32
2023-04-27T10:29:01.500Z,8.63
2023-04-27T10:31:30.612Z,8.95
2023-04-27T10:34:09.626Z,7.93
2023-04-27T10:36:38.600Z,10.60
2023-04-27T10:39:17.471Z,12.45
2023-04-27T10:41:54.062Z,9.32
2023-04-27T10:44:28.669Z,11.75
2023-04-27T10:46:59.818Z,9.80
2023-04-27T10:49:29.251Z,10.82
2023-04-27T10:51:59.377Z,10.63
2023-04-27T10:54:29.433Z,16.50
2023-04-27T10:57:04.889Z,12.23
2023-04-27T10:59:35.095Z,10.73
2023-04-27T11:02:04.067Z,13.25
2023-04-27T11:04:40.298Z,9.18
2023-04-27T11:07:10.201Z,10.52
2023-04-27T11:09:39.210Z,12.30
2023-04-27T11:12:08.525Z,11.98
2023-04-27T11:14:38.022Z,10.25
2023-04-27T11:17:06.865Z,12.55
2023-04-27T11:19:34.949Z,12.30
2023-04-27T11:22:05.267Z,13.27
2023-04-27T11:24:33.655Z,9.82
2023-04-27T11:27:02.969Z,11.15
2023-04-27T11:29:40.413Z,13.55
2023-04-27T11:32:09.029Z,9.43
2023-04-27T11:34:38.867Z,10.77
2023-04-27T11:42:18.101Z,13.20
2023-04-27T11:44:54.323Z,9.77
2023-04-27T11:47:23.039Z,9.90
2023-04-27T11:49:52.500Z,13.15
2023-04-27T11:52:21.521Z,9.57
2023-04-27T11:54:50.726Z,13.57
2023-04-27T11:57:19.379Z,8.52
2023-04-27T11:59:47.520Z,10.80
2023-04-27T12:02:17.547Z,14.30
2023-04-27T12:04:46.189Z,12.43
2023-04-27T12:07:14.750Z,10.18
2023-04-27T12:09:43.367Z,8.35
2023-04-27T12:12:12.840Z,9.63
2023-04-27T12:14:41.691Z,11.55
2023-04-27T12:17:10.068Z,9.90
2023-04-27T12:19:39.588Z,13.50
2023-04-27T12:22:08.523Z,10.10
2023-04-27T12:24:37.197Z,9.25
2023-04-27T12:27:06.881Z,14.05
2023-04-27T12:29:35.072Z,14.95
2023-04-27T12:32:03.435Z,11.85
2023-04-27T12:34:31.652Z,10.63
2023-04-27T12:37:01.415Z,16.45
2023-04-27T12:39:30.058Z,14.73
2023-04-27T12:41:59.204Z,15.73
2023-04-27T12:44:27.806Z,13.65
2023-04-27T12:46:57.351Z,16.20
2023-04-27T12:49:25.486Z,10.77
2023-04-27T12:51:54.249Z,9.68
2023-04-27T12:54:23.724Z,9.93
2023-04-27T12:56:52.261Z,14.43
2023-04-27T12:59:20.660Z,12.27
2023-04-27T13:01:49.112Z,10.95
2023-04-27T13:04:20.549Z,10.40
2023-04-27T13:06:49.847Z,9.85
2023-04-27T13:09:17.983Z,10.27
2023-04-27T13:11:47.723Z,13.82
2023-04-27T13:14:16.477Z,8.40
2023-04-27T13:16:45.750Z,10.93
2023-04-27T13:19:13.951Z,9.55
2023-04-27T13:21:42.503Z,14.63
2023-04-27T13:24:10.637Z,13.02
2023-04-27T13:26:39.288Z,9.05
2023-04-27T13:29:08.926Z,12.75
2023-04-27T13:31:37.589Z,12.43
2023-04-27T13:34:05.997Z,12.63
2023-04-27T13:36:34.661Z,9.60
2023-04-27T13:39:02.842Z,10.35
2023-04-27T13:41:32.572Z,10.00
2023-04-27T13:44:00.951Z,9.73
2023-04-27T13:46:30.784Z,15.45
2023-04-27T13:48:59.081Z,9.75
2023-04-27T13:51:29.715Z,9.23
2023-04-27T13:53:57.814Z,11.70
2023-04-27T13:56:26.181Z,9.32
2023-04-27T13:58:54.279Z,11.18
2023-04-27T14:01:22.848Z,14.60
2023-04-27T14:03:52.976Z,8.35
2023-04-27T14:06:21.602Z,13.43
2023-04-27T14:08:49.714Z,15.50
2023-04-27T14:11:19.124Z,12.30
2023-04-27T14:13:47.323Z,12.93
2023-04-27T14:16:15.919Z,14.48
2023-04-27T14:18:44.196Z,12.68
2023-04-27T14:21:14.012Z,9.02
2023-04-27T14:23:42.233Z,10.35
2023-04-27T14:26:10.942Z,10.57
2023-04-27T14:28:39.488Z,14.40
2023-04-27T14:31:08.046Z,10.00
2023-04-27T14:33:36.156Z,11.90
2023-04-27T14:36:04.752Z,9.20
2023-04-27T14:38:34.347Z,7.78
2023-04-27T14:41:05.493Z,8.65
2023-04-27T14:43:33.762Z,9.13
2023-04-27T14:46:19.241Z,9.25
2023-04-27T14:48:48.960Z,8.48
2023-04-27T14:51:18.028Z,8.15
2023-04-27T14:53:47.622Z,8.43
2023-04-27T14:56:16.237Z,9.10
2023-04-27T14:58:44.357Z,10.95
2023-04-27T15:01:12.761Z,10.98
2023-04-27T15:03:41.177Z,10.02
2023-04-27T15:06:09.796Z,14.35
2023-04-27T15:08:37.901Z,10.73
2023-04-27T15:11:07.843Z,9.27
2023-04-27T15:13:35.939Z,9.27
2023-04-27T15:16:05.042Z,9.18
2023-04-27T15:18:33.313Z,10.57
2023-04-27T15:21:01.765Z,10.40
2023-04-27T15:23:29.900Z,10.52
2023-04-27T15:25:59.218Z,9.98
2023-04-27T15:28:28.750Z,11.10
2023-04-27T15:30:57.212Z,9.35
2023-04-27T15:33:25.912Z,10.90
2023-04-27T15:35:54.371Z,9.73
2023-04-27T15:38:22.904Z,11.57
2023-04-27T15:40:51.323Z,10.32
2023-04-27T15:43:19.607Z,13.55
2023-04-27T15:45:49.335Z,11.90
2023-04-27T15:48:17.645Z,13.95
2023-04-27T15:50:46.347Z,13.07
2023-04-27T15:53:14.591Z,8.90
2023-04-27T15:55:43.270Z,12.38
2023-04-27T15:58:11.404Z,12.55
2023-04-27T16:00:39.827Z,19.88
2023-04-27T16:03:11.351Z,14.60
2023-04-27T16:05:40.077Z,15.13
2023-04-27T16:08:08.301Z,9.98
2023-04-27T16:10:37.076Z,14.52
2023-04-27T16:13:05.206Z,12.27
2023-04-27T16:15:33.553Z,17.40
2023-04-27T16:18:02.273Z,20.25
2023-04-27T16:20:33.603Z,17.65
2023-04-27T16:23:03.672Z,14.60
2023-04-27T16:25:32.096Z,13.23
2023-04-27T16:28:00.397Z,11.65
2023-04-27T16:30:29.085Z,12.70
2023-04-27T16:32:57.264Z,14.45
2023-04-27T16:35:25.974Z,12.20
2023-04-27T16:37:55.654Z,11.07
2023-04-27T16:40:24.023Z,9.45
2023-04-27T16:42:52.169Z,15.65
2023-04-27T16:45:20.894Z,10.73
2023-04-27T16:47:49.145Z,13.30
2023-04-27T16:50:17.747Z,15.85
2023-04-27T16:52:46.146Z,10.23
2023-04-27T16:55:15.960Z,14.93
2023-04-27T16:57:46.222Z,8.90
2023-04-27T17:00:15.803Z,13.82
2023-04-27T17:02:44.337Z,11.50
2023-04-27T17:05:13.331Z,16.00
2023-04-27T17:07:41.715Z,9.73
2023-04-27T17:10:10.460Z,12.80
2023-04-27T17:12:40.437Z,15.73
2023-04-27T17:15:11.976Z,10.02
2023-04-27T17:17:40.206Z,16.20
2023-04-27T17:20:10.666Z,16.15
2023-04-27T17:22:38.887Z,14.30
2023-04-27T17:25:08.535Z,18.70
2023-04-27T17:27:37.158Z,18.10
2023-04-27T17:30:09.481Z,14.75
2023-04-27T17:32:37.784Z,17.30
2023-04-27T17:35:07.481Z,32.03
2023-04-27T17:37:35.657Z,31.08
2023-04-27T17:40:05.945Z,65.75
2023-04-27T17:42:34.416Z,42.42
2023-04-27T17:45:03.119Z,33.20
2023-04-27T17:47:33.639Z,34.80
2023-04-27T17:50:02.143Z,38.13
2023-04-27T17:52:30.234Z,31.77
2023-04-27T17:54:58.847Z,26.02
2023-04-27T17:57:27.322Z,23.55
2023-04-27T17:59:55.732Z,25.70
2023-04-27T18:02:23.973Z,22.27
2023-04-27T18:04:54.005Z,29.40
2023-04-27T18:07:22.194Z,23.42
2023-04-27T18:09:50.577Z,25.60
2023-04-27T18:12:18.866Z,33.95
2023-04-27T18:14:47.219Z,20.83
2023-04-27T18:17:15.326Z,15.13
2023-04-27T18:19:43.867Z,19.33
2023-04-27T18:22:13.476Z,20.08
2023-04-27T18:24:42.550Z,18.17
2023-04-27T18:27:11.330Z,21.33
2023-04-27T18:29:40.067Z,26.52
2023-04-27T18:32:08.350Z,23.42
2023-04-27T18:34:37.737Z,19.00
2023-04-27T18:37:06.395Z,14.68
2023-04-27T18:39:36.156Z,11.10
2023-04-27T18:42:04.397Z,17.58
2023-04-27T18:44:32.822Z,22.10
2023-04-27T18:47:01.915Z,11.43
2023-04-27T18:49:30.762Z,11.85
2023-04-27T18:51:58.980Z,11.02
2023-04-27T18:54:27.393Z,11.85
2023-04-27T18:56:59.347Z,13.18
2023-04-27T19:01:55.919Z,11.18
2023-04-27T19:04:26.037Z,11.23
2023-04-27T19:06:54.324Z,11.45
2023-04-27T19:09:22.875Z,12.48
2023-04-27T19:12:01.974Z,10.10
2023-04-27T19:14:32.970Z,16.48
2023-04-27T19:17:01.368Z,14.60
2023-04-27T19:19:29.813Z,13.52
2023-04-27T19:21:58.414Z,15.05
2023-04-27T19:24:27.398Z,16.38
2023-04-27T19:26:55.750Z,16.33
2023-04-27T19:29:26.376Z,36.33
2023-04-27T19:31:56.216Z,30.40
2023-04-27T19:34:24.890Z,28.52
2023-04-27T19:36:53.013Z,35.05
2023-04-27T19:39:23.407Z,35.30
2023-04-27T19:41:51.534Z,28.23
2023-04-27T19:44:19.938Z,32.88
2023-04-27T19:46:48.186Z,37.85
2023-04-27T19:49:17.986Z,39.30
2023-04-27T19:51:46.238Z,44.17
2023-04-27T19:54:15.528Z,55.47
2023-04-27T19:56:43.768Z,36.78
2023-04-27T19:59:12.296Z,35.67
2023-04-27T20:01:40.595Z,22.52
2023-04-27T20:04:09.237Z,30.20
2023-04-27T20:06:40.717Z,39.00
2023-04-27T20:09:09.221Z,43.50
2023-04-27T20:11:37.317Z,35.03
2023-04-27T20:14:05.690Z,39.22
2023-04-27T20:16:33.850Z,38.10
2023-04-27T20:19:02.733Z,40.08
2023-04-27T20:21:30.977Z,35.53
2023-04-27T20:24:00.805Z,37.38
2023-04-27T20:26:29.741Z,32.05
2023-04-27T20:28:58.309Z,29.27
2023-04-27T20:31:26.935Z,28.95
2023-04-27T20:33:55.469Z,33.97
2023-04-27T20:36:24.104Z,27.35
2023-04-27T20:38:52.531Z,33.28
2023-04-27T20:41:22.376Z,29.45
2023-04-27T20:43:52.387Z,31.65
2023-04-27T20:46:21.053Z,37.33
2023-04-27T20:48:49.561Z,33.05
2023-04-27T20:51:17.675Z,34.65
2023-04-27T20:53:46.216Z,36.38
2023-04-27T20:56:15.067Z,34.03
2023-04-27T20:58:44.838Z,36.10
2023-04-27T21:01:13.060Z,33.25
2023-04-27T21:03:41.644Z,34.78
2023-04-27T21:06:10.024Z,37.42
2023-04-27T21:08:38.549Z,39.65
2023-04-27T21:11:06.882Z,40.17
2023-04-27T21:13:35.292Z,43.55
2023-04-27T21:16:05.019Z,36.00
2023-04-27T21:18:33.418Z,36.47
2023-04-27T21:21:01.524Z,37.67
2023-04-27T21:23:30.176Z,47.58
2023-04-27T21:25:58.266Z,43.22
2023-04-27T21:28:26.739Z,52.53
2023-04-27T21:30:55.041Z,50.35
2023-04-27T21:33:24.767Z,52.00
2023-04-27T21:35:52.881Z,47.45
2023-04-27T21:38:21.455Z,56.85
2023-04-27T21:40:49.575Z,50.13
2023-04-27T21:43:17.971Z,48.28
2023-04-27T21:45:46.155Z,51.75
2023-04-27T21:48:14.558Z,45.53
2023-04-27T21:50:44.476Z,49.10
2023-04-27T21:53:12.835Z,56.25
2023-04-27T21:55:40.964Z,57.03
2023-04-27T21:58:09.397Z,61.72
2023-04-27T22:00:37.508Z,66.95
2023-04-27T22:03:06.010Z,66.90
2023-04-27T22:05:37.065Z,67.00
2023-04-27T22:08:08.728Z,69.65
2023-04-27T22:10:37.292Z,77.47
2023-04-27T22:13:17.642Z,85.55
2023-04-27T22:15:47.029Z,103.95
2023-04-27T22:18:15.797Z,80.13
2023-04-27T22:20:44.110Z,85.47
2023-04-27T22:23:13.846Z,98.50
2023-04-27T22:25:43.126Z,74.57
2023-04-27T22:28:11.671Z,83.80
2023-04-27T22:30:40.780Z,67.10
2023-04-27T22:33:09.369Z,80.15
2023-04-27T22:35:38.518Z,74.63
2023-04-27T22:38:07.438Z,86.70
2023-04-27T22:40:37.133Z,91.88
2023-04-27T22:43:05.462Z,87.38
2023-04-27T22:45:33.557Z,76.03
2023-04-27T22:48:02.061Z,78.30
2023-04-27T22:50:30.575Z,70.70
2023-04-27T22:53:00.447Z,68.13
2023-04-27T22:55:28.707Z,65.10
2023-04-27T22:57:58.432Z,65.70
2023-04-27T23:00:26.670Z,74.45
2023-04-27T23:02:55.285Z,86.35
2023-04-27T23:05:23.619Z,94.40
2023-04-27T23:07:52.153Z,81.40
2023-04-27T23:10:20.300Z,76.05
2023-04-27T23:12:48.692Z,75.05
2023-04-27T23:15:18.460Z,63.17
2023-04-27T23:17:46.870Z,74.05
2023-04-27T23:20:27.221Z,73.13
2023-04-27T23:22:57.467Z,66.20
2023-04-27T23:25:25.838Z,65.57
2023-04-27T23:27:54.258Z,68.47
2023-04-27T23:30:24.022Z,71.50
2023-04-27T23:32:52.473Z,65.00
2023-04-27T23:35:20.956Z,75.05
2023-04-27T23:37:49.698Z,91.50
2023-04-27T23:40:17.986Z,82.43
2023-04-27T23:42:46.521Z,72.97
2023-04-27T23:45:14.640Z,73.70
2023-04-27T23:47:44.414Z,79.68
2023-04-27T23:50:12.560Z,81.90
2023-04-27T23:52:41.066Z,69.45
2023-04-27T23:55:10.273Z,64.22
2023-04-27T23:57:38.714Z,63.75
